Leland, IL

6:04 AM CST on February 13, 2016 (GMT -0600)
Farm 34 | | Change Station
CLOSE
Current Station
Personal Weather Station
Location: Earlville, IL
Elevation: 699 ft
Nearby Weather Stations

Elev 699 ft 41.59 °N, 88.85 °W | Updated 13 minutes ago

Clear
Clear
2.6 °F
Feels Like -10 °F
N
7.0
Wind Variable Wind from NNW
Gusts 8.0 mph

Today
High -- | Low -- °F
--% Chance of Precip.
Yesterday
High -- | Low -- °F
Precip. -- in
Pressure 30.62 in
Visibility 10.0 miles
Clouds Clear
Windchill -10 °F
Dew Point -7 °F
Humidity 65%
Rainfall 0.00 in
Snow Depth Not available.
6:53 AM 5:25 PM
Waxing Crescent, 30% visible
METAR KARR 131152Z AUTO 31005KT 10SM CLR M16/M22 A3057 RMK AO2 SLP367 T11611217 11133 21161 51007
Pressure 30.62 in
Visibility 10.0 miles
Clouds Clear
Windchill -10 °F
Dew Point -7 °F
Humidity 65%
Rainfall 0.00 in
Snow Depth Not available.
6:53 AM 5:25 PM
Waxing Crescent, 30% visible
METAR KARR 131152Z AUTO 31005KT 10SM CLR M16/M22 A3057 RMK AO2 SLP367 T11611217 11133 21161 51007

10-Day Weather Forecast

Almanac

Astronomy

Feb. 13, 2016 Rise Set
Actual Time
Civil Twilight
Nautical Twilight
Astronomical Twilight
Moon
Length of Visible Light
Length of Day
Tomorrow will be .
, % of the Moon is Illuminated

Today's Extremes

State Highs State Lows

Community

WunderPhotos

Upload Photos

1,892,541 photos uploaded!

WunderBlog® & News

Nearby

Air Quality

  Air Quality AQ Index Pollutant
Not available.

Snow Depth

Station Depth Elevation

Earthquake Activity

City Distance Mag. Time & Date
Minimum magnitude displayed is 2.5.

Coastal Water Temperatures

Place Temperature

Stations

Nearby Weather Stations

Station Location Temp. Windchill Dew Point Humidity Wind Precip. Elev Updated Type
                   

Watches & Warnings

There are currently no watches in effect.